KNQX/NQX METAR and TAF weather

Enter ICAO airport designator
Station Type Date Time Source
KNQX METAR 2021/03/05 00:53 UTC NOAA

KNQX 050053Z 33011KT 10SM SCT030 19/13 A2999 RMK AO2 SLP154 T01940133 $


Station Type Date Time Source
KNQX Decoded METAR 2021/03/05 00:53 UTC NOAA

KEY WEST NAVAL AIR STATION, FL, United States (KNQX) 24-35N 81-41W 6M
Mar 04, 2021 - 07:53 PM EST / 2021.03.05 0053 UTC
Wind: from the NNW (330 degrees) at 13 MPH (11 KT):0
Visibility: 10 mile(s):0
Sky conditions: partly cloudy
Temperature: 66.9 F (19.4 C)
Dew Point: 55.9 F (13.3 C)
Relative Humidity: 67%
Pressure (altimeter): 29.99 in. Hg (1015 hPa)
ob: KNQX 050053Z 33011KT 10SM SCT030 19/13 A2999 RMK AO2 SLP154 T01940133
cycle: 1

Station Type Date Time Source
KNQX TAF 2021/03/04 23:58 UTC NOAA

TAF KNQX 0423/0523 32015KT 9999 SCT030 QNH2995INS
TEMPO 0504/0510 36012KT BKN030
BECMG 0510/0512 02010KT 9999 SCT025 QNH2996INS AUTOMATED SENSOR METWATCH 0503 TIL 0511 T20/0511Z T23/0519Z FN20073

Example: see airport list